Time;durP1;ratioP1;P1;durP2;ratioP2;P2;SDS_P1;SDS_P2;PMS_P1;PMS_P2;Temp;Humidity;BMP_temperature;BMP_pressure;BME280_temperature;BME280_humidity;BME280_pressure;Samples;Min_cycle;Max_cycle;Signal;HPM_P1;HPM_P2
2022/08/24 00:01:00;;;;;;;10.90;9.80;;;;;;;;;;4993456;28;20133;-86
2022/08/24 00:03:26;;;;;;;10.38;9.38;;;;;;;;;;4986557;28;20661;-86
2022/08/24 00:05:52;;;;;;;10.48;9.57;;;;;;;;;;4997907;28;20103;-86
2022/08/24 00:08:18;;;;;;;11.48;10.38;;;;;;;;;;5014313;28;20058;-86
2022/08/24 00:10:45;;;;;;;11.60;10.43;;;;;;;;;;5009728;28;20084;-86
2022/08/24 00:13:11;;;;;;;11.05;9.88;;;;;;;;;;4997440;28;20505;-86
2022/08/24 00:15:37;;;;;;;10.80;9.80;;;;;;;;;;4998262;28;20082;-86
2022/08/24 00:18:03;;;;;;;10.93;9.82;;;;;;;;;;5013960;28;20061;-86
2022/08/24 00:20:29;;;;;;;10.60;9.52;;;;;;;;;;4994320;28;20054;-86
2022/08/24 00:22:55;;;;;;;11.35;10.35;;;;;;;;;;5012060;28;20497;-87
2022/08/24 00:25:21;;;;;;;10.70;9.32;;;;;;;;;;5003371;28;20073;-87
2022/08/24 00:27:47;;;;;;;10.07;9.10;;;;;;;;;;4994898;28;20045;-87
2022/08/24 00:30:14;;;;;;;10.73;9.73;;;;;;;;;;5011566;28;20628;-86
2022/08/24 00:32:45;;;;;;;10.32;9.30;;;;;;;;;;5010285;28;20398;-87
2022/08/24 00:35:11;;;;;;;9.60;8.60;;;;;;;;;;4990973;28;20057;-86
2022/08/24 00:37:38;;;;;;;10.05;9.15;;;;;;;;;;4995562;28;20046;-86
2022/08/24 00:40:10;;;;;;;10.63;9.52;;;;;;;;;;4994480;28;20049;-86
2022/08/24 00:42:37;;;;;;;10.40;9.45;;;;;;;;;;4993704;28;20039;-86
2022/08/24 00:45:04;;;;;;;9.40;8.45;;;;;;;;;;5003692;28;20084;-86
2022/08/24 00:47:34;;;;;;;9.65;8.75;;;;;;;;;;5010583;28;20395;-87
2022/08/24 00:50:05;;;;;;;9.70;8.80;;;;;;;;;;5001738;28;20077;-87
2022/08/24 00:52:33;;;;;;;9.43;8.52;;;;;;;;;;5008924;28;20053;-87
2022/08/24 00:55:06;;;;;;;9.57;8.68;;;;;;;;;;4990840;28;20072;-86
2022/08/24 00:57:34;;;;;;;10.13;9.20;;;;;;;;;;5013957;28;20085;-87
2022/08/24 01:00:04;;;;;;;10.82;9.82;;;;;;;;;;5483744;23;20040;-87
2022/08/24 01:02:32;;;;;;;10.27;9.27;;;;;;;;;;5031505;28;20096;-86
2022/08/24 01:05:00;;;;;;;10.35;9.00;;;;;;;;;;5008560;28;20064;-86
2022/08/24 01:07:28;;;;;;;10.13;9.18;;;;;;;;;;5005025;28;20048;-86
2022/08/24 01:09:56;;;;;;;10.48;9.40;;;;;;;;;;5013202;28;20045;-87
2022/08/24 01:12:30;;;;;;;10.55;9.35;;;;;;;;;;5013200;28;20048;-86
2022/08/24 01:14:57;;;;;;;10.40;9.40;;;;;;;;;;5012130;28;20044;-87
2022/08/24 01:20:09;;;;;;;10.07;9.18;;;;;;;;;;5024060;28;20481;-86
2022/08/24 01:22:44;;;;;;;10.30;9.40;;;;;;;;;;5013763;28;20046;-85
2022/08/24 01:25:10;;;;;;;10.47;9.37;;;;;;;;;;5008938;28;20049;-87
2022/08/24 01:27:36;;;;;;;10.27;9.27;;;;;;;;;;5008618;28;20065;-87
2022/08/24 01:30:07;;;;;;;10.52;9.52;;;;;;;;;;5028698;28;20033;-87
2022/08/24 01:32:34;;;;;;;10.13;8.80;;;;;;;;;;5027272;28;20046;-86
2022/08/24 01:35:00;;;;;;;10.95;9.88;;;;;;;;;;5006910;28;20057;-86
2022/08/24 01:37:26;;;;;;;11.05;10.05;;;;;;;;;;5011035;28;20123;-86
2022/08/24 01:39:55;;;;;;;10.88;9.77;;;;;;;;;;5027294;28;20049;-87
2022/08/24 01:42:21;;;;;;;10.30;9.40;;;;;;;;;;5010475;28;20124;-87
2022/08/24 01:44:47;;;;;;;10.85;9.75;;;;;;;;;;5042520;28;20037;-87
2022/08/24 01:47:14;;;;;;;10.60;9.60;;;;;;;;;;5037343;28;20125;-88
2022/08/24 01:49:41;;;;;;;10.60;9.55;;;;;;;;;;5027022;28;20048;-87
2022/08/24 01:52:09;;;;;;;10.88;9.77;;;;;;;;;;5010531;28;20042;-87
2022/08/24 01:54:35;;;;;;;10.50;9.50;;;;;;;;;;5009223;28;20081;-87
2022/08/24 01:57:02;;;;;;;10.43;9.43;;;;;;;;;;5023244;28;20132;-87
2022/08/24 01:59:28;;;;;;;11.00;10.00;;;;;;;;;;5009810;28;20038;-86
2022/08/24 02:01:58;;;;;;;10.88;9.88;;;;;;;;;;5011244;28;20050;-87
2022/08/24 02:04:24;;;;;;;12.20;10.90;;;;;;;;;;5010600;28;20049;-86
2022/08/24 02:06:50;;;;;;;12.30;11.15;;;;;;;;;;5026516;28;20045;-86
2022/08/24 02:09:17;;;;;;;12.30;10.98;;;;;;;;;;5010211;28;20037;-86
2022/08/24 02:11:43;;;;;;;12.43;11.32;;;;;;;;;;5027872;28;20053;-86
2022/08/24 02:14:09;;;;;;;11.85;10.75;;;;;;;;;;5027357;28;20049;-86
2022/08/24 02:16:35;;;;;;;12.25;11.07;;;;;;;;;;5012802;28;20100;-86
2022/08/24 02:19:01;;;;;;;11.90;10.80;;;;;;;;;;5009289;28;20049;-86
2022/08/24 02:21:28;;;;;;;12.07;11.05;;;;;;;;;;5008835;28;20046;-86
2022/08/24 02:23:54;;;;;;;12.45;11.35;;;;;;;;;;5030406;28;20041;-87
2022/08/24 02:26:20;;;;;;;13.02;11.73;;;;;;;;;;5021943;28;20120;-86
2022/08/24 02:28:46;;;;;;;13.23;12.02;;;;;;;;;;5010859;28;20057;-87
2022/08/24 02:31:13;;;;;;;13.10;11.70;;;;;;;;;;5009374;28;20052;-87
2022/08/24 02:33:40;;;;;;;13.20;12.00;;;;;;;;;;5028932;28;20393;-87
2022/08/24 02:36:06;;;;;;;11.98;10.77;;;;;;;;;;5025927;28;20044;-87
2022/08/24 02:38:32;;;;;;;13.45;12.15;;;;;;;;;;5012480;28;20072;-86
2022/08/24 02:40:59;;;;;;;13.20;11.90;;;;;;;;;;5032630;28;20053;-87
2022/08/24 02:43:25;;;;;;;14.57;13.25;;;;;;;;;;5029690;28;20044;-86
2022/08/24 02:45:51;;;;;;;14.02;12.68;;;;;;;;;;5009796;28;20049;-87
2022/08/24 02:48:18;;;;;;;13.82;11.70;;;;;;;;;;5011976;28;20082;-87
2022/08/24 02:50:47;;;;;;;13.52;12.18;;;;;;;;;;5015591;28;20057;-87
2022/08/24 02:53:14;;;;;;;13.57;12.40;;;;;;;;;;5000815;28;20045;-86
2022/08/24 02:55:41;;;;;;;13.10;11.90;;;;;;;;;;5030511;28;20056;-86
2022/08/24 02:58:08;;;;;;;13.65;12.25;;;;;;;;;;5018421;28;20465;-87
2022/08/24 03:00:35;;;;;;;13.88;12.40;;;;;;;;;;5028235;28;20045;-86
2022/08/24 03:03:01;;;;;;;13.23;11.82;;;;;;;;;;5025893;28;20573;-87
2022/08/24 03:05:27;;;;;;;13.18;11.75;;;;;;;;;;5011754;28;20052;-86
2022/08/24 03:07:54;;;;;;;13.90;12.50;;;;;;;;;;5010187;28;20057;-86
2022/08/24 03:10:20;;;;;;;14.20;12.80;;;;;;;;;;5011294;28;20048;-86
2022/08/24 03:12:47;;;;;;;14.27;12.82;;;;;;;;;;5009182;28;21092;-86
2022/08/24 03:15:13;;;;;;;14.50;13.00;;;;;;;;;;5026883;28;20038;-86
2022/08/24 03:17:39;;;;;;;14.75;13.45;;;;;;;;;;5026196;28;20099;-86
2022/08/24 03:20:09;;;;;;;14.13;12.73;;;;;;;;;;5006809;28;20046;-85
2022/08/24 03:22:38;;;;;;;;;;;;;;;;;;5034168;28;20041;-87
2022/08/24 03:25:05;;;;;;;13.02;11.82;;;;;;;;;;5030738;28;19928;-86
2022/08/24 03:27:31;;;;;;;13.85;12.45;;;;;;;;;;5009025;28;20053;-86
2022/08/24 03:29:57;;;;;;;14.20;12.90;;;;;;;;;;5024337;28;20046;-86
2022/08/24 03:32:23;;;;;;;15.50;14.10;;;;;;;;;;5020168;28;20048;-86
2022/08/24 03:34:49;;;;;;;14.77;13.35;;;;;;;;;;5010140;28;20053;-86
2022/08/24 03:37:15;;;;;;;15.18;13.77;;;;;;;;;;5010205;28;20038;-85
2022/08/24 03:39:41;;;;;;;15.30;13.75;;;;;;;;;;5011681;28;20400;-86
2022/08/24 03:42:08;;;;;;;14.88;13.40;;;;;;;;;;5006688;28;20046;-86
2022/08/24 03:44:33;;;;;;;15.27;13.80;;;;;;;;;;5011741;28;20096;-86
2022/08/24 03:46:59;;;;;;;15.10;13.63;;;;;;;;;;5008805;28;20452;-87
2022/08/24 03:49:25;;;;;;;15.25;13.85;;;;;;;;;;5024052;28;20053;-86
2022/08/24 03:51:52;;;;;;;14.90;13.40;;;;;;;;;;5003155;28;20125;-87
2022/08/24 03:54:18;;;;;;;14.68;13.38;;;;;;;;;;5023165;28;20061;-86
2022/08/24 03:56:44;;;;;;;15.63;14.05;;;;;;;;;;5021944;28;20417;-86
2022/08/24 03:59:11;;;;;;;17.02;15.43;;;;;;;;;;5014916;28;20400;-87
2022/08/24 04:01:37;;;;;;;16.67;15.02;;;;;;;;;;4997332;28;20061;-86
2022/08/24 04:04:04;;;;;;;16.35;14.77;;;;;;;;;;4998903;28;20060;-86
2022/08/24 04:06:30;;;;;;;16.52;14.93;;;;;;;;;;5022392;28;20496;-85
2022/08/24 04:08:56;;;;;;;16.42;14.80;;;;;;;;;;5002353;28;20049;-86
2022/08/24 04:11:23;;;;;;;17.20;15.43;;;;;;;;;;4998947;28;20053;-86
2022/08/24 04:13:51;;;;;;;17.50;15.75;;;;;;;;;;5005738;28;20049;-87
2022/08/24 04:16:18;;;;;;;16.70;15.10;;;;;;;;;;5020496;28;20406;-86
2022/08/24 04:18:45;;;;;;;16.10;14.50;;;;;;;;;;4999735;28;20038;-86
2022/08/24 04:21:19;;;;;;;16.80;15.20;;;;;;;;;;5005687;28;20104;-85
2022/08/24 04:23:45;;;;;;;17.02;15.32;;;;;;;;;;5020654;28;20571;-85
2022/08/24 04:26:12;;;;;;;16.52;14.80;;;;;;;;;;5004861;28;20045;-86
2022/08/24 04:28:38;;;;;;;15.90;14.48;;;;;;;;;;5020810;28;20465;-86
2022/08/24 04:31:05;;;;;;;17.08;15.45;;;;;;;;;;5024063;28;20033;-86
2022/08/24 04:33:31;;;;;;;16.42;14.75;;;;;;;;;;5024043;28;20042;-87
2022/08/24 04:35:57;;;;;;;16.92;15.40;;;;;;;;;;5006288;28;20136;-86
2022/08/24 04:38:23;;;;;;;17.60;15.90;;;;;;;;;;5011114;28;20428;-86
2022/08/24 04:40:49;;;;;;;17.50;15.70;;;;;;;;;;5026863;28;20132;-87
2022/08/24 04:43:17;;;;;;;18.60;16.77;;;;;;;;;;5014918;28;20049;-87
2022/08/24 04:45:44;;;;;;;18.17;16.38;;;;;;;;;;5015284;28;20045;-88
2022/08/24 04:48:10;;;;;;;18.80;16.63;;;;;;;;;;5015465;28;20053;-87
2022/08/24 04:50:37;;;;;;;17.58;15.88;;;;;;;;;;5031713;28;20041;-87
2022/08/24 04:53:04;;;;;;;18.60;16.70;;;;;;;;;;5032634;28;20037;-87
2022/08/24 04:55:30;;;;;;;18.27;16.52;;;;;;;;;;5016165;28;20061;-87
2022/08/24 04:57:56;;;;;;;18.05;16.27;;;;;;;;;;5001745;28;20042;-87
2022/08/24 05:00:22;;;;;;;17.55;15.85;;;;;;;;;;5028585;28;20417;-87
2022/08/24 05:02:48;;;;;;;16.58;14.85;;;;;;;;;;5034085;28;20057;-87
2022/08/24 05:05:15;;;;;;;15.68;14.27;;;;;;;;;;5012595;28;20088;-86
2022/08/24 05:07:41;;;;;;;17.05;15.45;;;;;;;;;;5025097;28;20079;-86
2022/08/24 05:10:08;;;;;;;18.50;16.60;;;;;;;;;;5006940;28;20042;-87
2022/08/24 05:12:34;;;;;;;19.42;17.58;;;;;;;;;;5003209;28;20057;-86
2022/08/24 05:15:00;;;;;;;18.35;16.55;;;;;;;;;;5004619;28;20470;-86
2022/08/24 05:17:26;;;;;;;16.30;14.70;;;;;;;;;;5022590;28;20045;-86
2022/08/24 05:19:53;;;;;;;17.63;16.02;;;;;;;;;;5021417;28;20064;-87
2022/08/24 05:22:20;;;;;;;17.85;16.05;;;;;;;;;;5004296;28;20050;-86
2022/08/24 05:24:46;;;;;;;17.27;15.60;;;;;;;;;;5008607;28;20037;-87
2022/08/24 05:27:12;;;;;;;18.05;16.25;;;;;;;;;;5005447;28;20256;-87
2022/08/24 05:29:38;;;;;;;17.42;15.73;;;;;;;;;;5027930;28;20037;-87
2022/08/24 05:32:04;;;;;;;19.80;17.75;;;;;;;;;;5022127;28;20184;-86
2022/08/24 05:34:30;;;;;;;17.55;15.95;;;;;;;;;;5021992;28;20070;-85
2022/08/24 05:36:56;;;;;;;17.50;15.90;;;;;;;;;;5023387;28;20111;-85
2022/08/24 05:39:22;;;;;;;18.40;16.60;;;;;;;;;;5000581;28;20056;-85
2022/08/24 05:41:48;;;;;;;18.42;16.48;;;;;;;;;;5007672;28;20042;-86
2022/08/24 05:44:15;;;;;;;17.58;15.82;;;;;;;;;;5023225;28;20146;-85
2022/08/24 05:46:41;;;;;;;17.27;15.68;;;;;;;;;;5028362;28;20037;-86
2022/08/24 05:49:08;;;;;;;18.50;16.75;;;;;;;;;;5024443;28;20047;-85
2022/08/24 05:51:34;;;;;;;16.88;15.27;;;;;;;;;;5038272;28;20068;-86
2022/08/24 05:54:02;;;;;;;17.63;16.02;;;;;;;;;;5027309;28;20400;-85
2022/08/24 05:56:28;;;;;;;16.80;15.25;;;;;;;;;;5024860;28;20045;-85
2022/08/24 05:58:54;;;;;;;17.75;16.05;;;;;;;;;;5028216;28;20083;-85
2022/08/24 06:01:24;;;;;;;16.25;14.75;;;;;;;;;;5022753;28;20050;-85
2022/08/24 06:03:51;;;;;;;17.33;15.70;;;;;;;;;;5005391;28;20136;-85
2022/08/24 06:06:18;;;;;;;17.80;16.13;;;;;;;;;;5028455;28;20049;-85
2022/08/24 06:08:45;;;;;;;16.73;15.18;;;;;;;;;;5023827;28;20584;-84
2022/08/24 06:11:12;;;;;;;15.88;14.32;;;;;;;;;;5010380;28;20517;-85
2022/08/24 06:13:38;;;;;;;16.75;15.18;;;;;;;;;;5008087;28;20460;-84
2022/08/24 06:16:10;;;;;;;17.23;15.50;;;;;;;;;;5008643;28;20034;-85
2022/08/24 06:18:36;;;;;;;16.15;14.70;;;;;;;;;;5037142;28;20050;-84
2022/08/24 06:21:06;;;;;;;15.32;13.85;;;;;;;;;;5018294;28;20033;-85
2022/08/24 06:23:32;;;;;;;13.52;12.32;;;;;;;;;;5009507;28;20060;-85
2022/08/24 06:28:44;;;;;;;10.52;9.52;;;;;;;;;;5026477;28;20072;-86
2022/08/24 06:31:10;;;;;;;11.10;10.00;;;;;;;;;;5011461;28;20409;-85
2022/08/24 06:33:36;;;;;;;9.80;8.90;;;;;;;;;;4998797;28;20434;-85
2022/08/24 06:36:02;;;;;;;9.77;8.77;;;;;;;;;;5027671;28;20041;-85
2022/08/24 06:38:29;;;;;;;9.43;8.52;;;;;;;;;;5025779;28;20045;-83
2022/08/24 06:40:55;;;;;;;11.23;8.93;;;;;;;;;;5010121;28;20049;-84
2022/08/24 06:43:22;;;;;;;8.60;7.80;;;;;;;;;;5021293;28;20046;-84
2022/08/24 06:45:49;;;;;;;7.88;7.03;;;;;;;;;;5006859;28;20068;-85
2022/08/24 06:48:15;;;;;;;7.82;7.03;;;;;;;;;;5030945;28;20050;-85
2022/08/24 06:50:41;;;;;;;5.68;4.70;;;;;;;;;;5027866;28;20053;-84
2022/08/24 06:53:07;;;;;;;10.70;4.35;;;;;;;;;;5009956;28;20099;-86
2022/08/24 06:55:33;;;;;;;4.43;3.70;;;;;;;;;;5010109;28;20060;-84
2022/08/24 06:57:59;;;;;;;5.88;3.70;;;;;;;;;;5009161;28;20751;-84
2022/08/24 07:00:25;;;;;;;4.13;3.60;;;;;;;;;;5022695;28;20788;-85
2022/08/24 07:02:51;;;;;;;4.15;3.50;;;;;;;;;;5031615;28;20441;-87
2022/08/24 07:05:17;;;;;;;4.68;3.08;;;;;;;;;;5029589;28;20049;-85
2022/08/24 07:07:43;;;;;;;3.25;2.95;;;;;;;;;;5014100;28;20568;-85
2022/08/24 07:10:09;;;;;;;4.47;3.15;;;;;;;;;;5010960;28;20049;-83
2022/08/24 07:12:36;;;;;;;5.63;3.95;;;;;;;;;;5010958;28;20438;-85
2022/08/24 07:15:03;;;;;;;4.43;3.72;;;;;;;;;;5003476;28;20103;-85
2022/08/24 07:17:30;;;;;;;4.30;3.90;;;;;;;;;;5031024;28;20083;-84
2022/08/24 07:19:56;;;;;;;4.10;3.80;;;;;;;;;;5002362;28;20045;-86
2022/08/24 07:22:22;;;;;;;3.70;3.40;;;;;;;;;;5002724;28;20081;-87
2022/08/24 07:24:48;;;;;;;3.75;3.45;;;;;;;;;;5029152;28;20081;-85
2022/08/24 07:27:14;;;;;;;4.00;3.60;;;;;;;;;;5019803;28;20077;-85
2022/08/24 07:29:40;;;;;;;4.10;3.30;;;;;;;;;;5026155;28;20076;-85
2022/08/24 07:32:06;;;;;;;3.53;2.95;;;;;;;;;;5009943;28;20049;-85
2022/08/24 07:34:32;;;;;;;3.30;3.00;;;;;;;;;;5009165;28;20049;-85
2022/08/24 07:36:59;;;;;;;2.92;2.67;;;;;;;;;;5027450;28;20416;-85
2022/08/24 07:39:25;;;;;;;3.50;3.20;;;;;;;;;;5010675;28;20049;-86
2022/08/24 07:41:51;;;;;;;3.78;3.35;;;;;;;;;;5010262;28;20037;-85
2022/08/24 07:44:18;;;;;;;3.55;3.33;;;;;;;;;;5004233;28;20092;-86
2022/08/24 07:46:44;;;;;;;4.00;3.60;;;;;;;;;;5008595;28;20044;-86
2022/08/24 07:49:11;;;;;;;4.13;3.80;;;;;;;;;;5006431;28;20041;-85
2022/08/24 07:51:37;;;;;;;4.10;3.80;;;;;;;;;;5003502;28;20056;-87
2022/08/24 07:54:03;;;;;;;4.80;3.85;;;;;;;;;;5012118;28;20041;-87
2022/08/24 07:56:30;;;;;;;4.38;3.97;;;;;;;;;;5026544;28;20152;-86
2022/08/24 07:58:56;;;;;;;4.93;4.53;;;;;;;;;;5009576;28;20481;-84
2022/08/24 08:01:23;;;;;;;4.80;4.30;;;;;;;;;;5004714;28;20053;-84
2022/08/24 08:03:50;;;;;;;4.25;3.85;;;;;;;;;;5005924;28;20398;-85
2022/08/24 08:06:17;;;;;;;4.15;3.75;;;;;;;;;;5003650;28;20502;-85
2022/08/24 08:08:47;;;;;;;4.03;3.72;;;;;;;;;;5006793;28;20117;-84
2022/08/24 08:11:13;;;;;;;5.50;4.13;;;;;;;;;;5010527;28;20048;-84
2022/08/24 08:13:39;;;;;;;4.10;3.80;;;;;;;;;;5001684;28;20049;-84
2022/08/24 08:16:05;;;;;;;3.97;3.60;;;;;;;;;;5028200;28;20034;-84
2022/08/24 08:18:31;;;;;;;4.18;3.88;;;;;;;;;;5029638;28;20128;-85
2022/08/24 08:20:58;;;;;;;4.55;4.15;;;;;;;;;;5015639;28;20042;-83
2022/08/24 08:26:16;;;;;;;4.55;4.07;;;;;;;;;;5011512;28;20041;-83
2022/08/24 08:28:42;;;;;;;4.60;4.20;;;;;;;;;;5026916;28;20538;-84
2022/08/24 08:31:09;;;;;;;4.60;4.30;;;;;;;;;;5031505;28;20073;-83
2022/08/24 08:33:35;;;;;;;4.72;4.32;;;;;;;;;;5016302;28;20049;-85
2022/08/24 08:36:12;;;;;;;4.60;4.20;;;;;;;;;;5006910;28;20091;-83
2022/08/24 08:38:38;;;;;;;3.92;3.63;;;;;;;;;;5008035;28;20497;-83
2022/08/24 08:41:16;;;;;;;5.53;4.13;;;;;;;;;;5006188;28;20523;-84
2022/08/24 08:43:47;;;;;;;4.55;4.15;;;;;;;;;;5030110;28;20053;-83
2022/08/24 08:46:13;;;;;;;5.30;4.45;;;;;;;;;;5002380;28;20042;-84
2022/08/24 08:49:05;;;;;;;4.95;4.47;;;;;;;;;;5031756;28;20128;-85
2022/08/24 08:51:36;;;;;;;4.93;4.25;;;;;;;;;;5027225;28;20513;-84
2022/08/24 08:54:11;;;;;;;5.97;4.25;;;;;;;;;;5011068;28;20052;-84
2022/08/24 08:56:55;;;;;;;4.43;4.03;;;;;;;;;;5027889;28;20398;-84
2022/08/24 08:59:36;;;;;;;4.47;4.10;;;;;;;;;;5012949;28;20049;-83
2022/08/24 09:02:22;;;;;;;5.05;3.88;;;;;;;;;;5032448;28;20073;-84
2022/08/24 09:05:01;;;;;;;4.90;3.70;;;;;;;;;;5021349;28;20477;-84
2022/08/24 09:07:27;;;;;;;5.10;3.65;;;;;;;;;;5012654;28;20507;-83
2022/08/24 09:09:53;;;;;;;4.82;4.25;;;;;;;;;;5013346;28;20045;-84
2022/08/24 09:12:28;;;;;;;4.47;4.07;;;;;;;;;;5023972;28;20048;-83
2022/08/24 09:14:57;;;;;;;6.03;4.47;;;;;;;;;;5013451;28;20072;-83
2022/08/24 09:17:35;;;;;;;4.53;3.75;;;;;;;;;;5007563;28;20045;-83
2022/08/24 09:20:08;;;;;;;3.97;3.67;;;;;;;;;;5014143;28;20132;-84
2022/08/24 09:22:57;;;;;;;5.10;4.60;;;;;;;;;;5008988;28;20458;-84
2022/08/24 09:25:27;;;;;;;5.63;4.68;;;;;;;;;;5020552;28;20064;-83
2022/08/24 09:28:12;;;;;;;4.95;4.55;;;;;;;;;;5025667;28;20046;-84
2022/08/24 09:30:58;;;;;;;5.22;4.72;;;;;;;;;;5022344;28;20051;-83
2022/08/24 09:33:30;;;;;;;5.70;5.20;;;;;;;;;;4963459;28;20501;-83
2022/08/24 09:36:06;;;;;;;5.23;4.73;;;;;;;;;;5044332;28;20077;-83
2022/08/24 09:38:51;;;;;;;6.10;5.32;;;;;;;;;;5010563;28;20696;-83
2022/08/24 09:41:30;;;;;;;6.15;5.13;;;;;;;;;;5030334;28;20172;-83
2022/08/24 09:43:59;;;;;;;6.72;6.03;;;;;;;;;;5026359;28;20046;-83
2022/08/24 09:46:34;;;;;;;6.30;5.45;;;;;;;;;;5029605;28;20061;-84
2022/08/24 09:49:27;;;;;;;7.05;5.75;;;;;;;;;;5012254;28;20460;-84
2022/08/24 09:52:03;;;;;;;6.60;5.50;;;;;;;;;;4988961;28;20067;-85
2022/08/24 09:54:48;;;;;;;5.80;5.30;;;;;;;;;;5012133;28;20111;-85
2022/08/24 09:57:14;;;;;;;6.15;5.22;;;;;;;;;;5007418;28;20052;-83
2022/08/24 09:59:59;;;;;;;8.75;5.22;;;;;;;;;;5013824;28;20033;-84
2022/08/24 10:02:44;;;;;;;6.32;5.68;;;;;;;;;;5012081;28;20702;-84
2022/08/24 10:05:13;;;;;;;6.35;5.75;;;;;;;;;;5005764;28;20038;-76
2022/08/24 10:07:44;;;;;;;6.07;5.47;;;;;;;;;;5029390;28;20041;-89
2022/08/24 10:10:24;;;;;;;6.15;5.55;;;;;;;;;;5009426;28;20033;-91
2022/08/24 10:13:03;;;;;;;7.32;6.63;;;;;;;;;;5012105;28;20580;-91
2022/08/24 10:15:55;;;;;;;6.70;5.43;;;;;;;;;;5014187;28;20050;-87
2022/08/24 10:18:47;;;;;;;6.07;5.22;;;;;;;;;;5034940;28;20170;-87
2022/08/24 10:21:19;;;;;;;6.38;5.13;;;;;;;;;;4996573;28;20042;-89
2022/08/24 10:23:52;;;;;;;7.30;6.67;;;;;;;;;;5004034;28;20042;-87
2022/08/24 10:26:19;;;;;;;6.50;5.90;;;;;;;;;;5006153;28;20053;-89
2022/08/24 10:28:55;;;;;;;7.15;6.45;;;;;;;;;;5011611;28;20053;-90
2022/08/24 10:31:21;;;;;;;7.75;6.07;;;;;;;;;;5010456;28;20053;-90
2022/08/24 10:34:05;;;;;;;5.95;5.28;;;;;;;;;;5012600;28;20045;-88
2022/08/24 10:36:54;;;;;;;7.85;7.05;;;;;;;;;;5013690;28;20175;-88
2022/08/24 10:39:42;;;;;;;8.90;6.32;;;;;;;;;;5006645;28;20050;-89
2022/08/24 10:45:14;;;;;;;8.55;6.28;;;;;;;;;;5029830;28;20459;-89
2022/08/24 10:47:44;;;;;;;8.10;5.47;;;;;;;;;;5017228;28;20155;-90
2022/08/24 10:50:13;;;;;;;7.13;5.72;;;;;;;;;;5019864;28;20068;-89
2022/08/24 10:52:58;;;;;;;5.70;5.18;;;;;;;;;;5033274;28;20374;-89
2022/08/24 10:55:26;;;;;;;6.03;5.32;;;;;;;;;;5004377;28;20528;-90
2022/08/24 10:57:59;;;;;;;6.43;5.35;;;;;;;;;;5011826;28;20084;-89
2022/08/24 11:00:29;;;;;;;6.20;5.50;;;;;;;;;;5020844;28;20851;-87
2022/08/24 11:03:06;;;;;;;6.78;5.22;;;;;;;;;;5008843;28;20049;-89
2022/08/24 11:05:37;;;;;;;6.28;5.32;;;;;;;;;;5029564;28;20041;-88
2022/08/24 11:08:04;;;;;;;5.50;5.00;;;;;;;;;;5007272;28;20046;-90
2022/08/24 11:10:32;;;;;;;6.35;5.75;;;;;;;;;;5009542;28;20045;-82
2022/08/24 11:13:16;;;;;;;6.30;5.70;;;;;;;;;;5003993;28;20045;-82
2022/08/24 11:15:51;;;;;;;6.82;5.90;;;;;;;;;;5009772;28;20136;-81
2022/08/24 11:18:17;;;;;;;6.40;5.80;;;;;;;;;;5022426;28;20062;-81
2022/08/24 11:20:48;;;;;;;7.75;6.95;;;;;;;;;;5028957;28;20124;-81
2022/08/24 11:23:16;;;;;;;8.15;7.32;;;;;;;;;;5016277;28;20042;-81
2022/08/24 11:25:51;;;;;;;9.30;7.93;;;;;;;;;;5011744;28;20041;-81
2022/08/24 11:28:22;;;;;;;8.50;7.70;;;;;;;;;;5020731;28;20048;-76
2022/08/24 11:30:48;;;;;;;7.35;6.03;;;;;;;;;;5011333;28;20056;-76
2022/08/24 11:33:34;;;;;;;7.70;6.85;;;;;;;;;;5009356;28;20052;-76
2022/08/24 11:36:01;;;;;;;8.95;7.45;;;;;;;;;;5002497;28;20049;-76
2022/08/24 11:38:33;;;;;;;7.35;6.50;;;;;;;;;;5006644;28;20049;-75
2022/08/24 11:41:05;;;;;;;11.15;8.88;;;;;;;;;;5004556;28;20053;-76
2022/08/24 11:43:41;;;;;;;10.60;9.45;;;;;;;;;;5011004;28;20449;-76
2022/08/24 11:46:07;;;;;;;10.88;7.93;;;;;;;;;;5027797;28;20431;-77
2022/08/24 11:48:46;;;;;;;10.23;6.90;;;;;;;;;;5008569;28;20049;-75
2022/08/24 11:51:19;;;;;;;9.05;8.15;;;;;;;;;;5007083;28;20053;-76
2022/08/24 11:53:48;;;;;;;10.45;8.10;;;;;;;;;;5027731;28;20049;-76
2022/08/24 11:56:38;;;;;;;10.40;9.40;;;;;;;;;;5030957;28;20037;-76
2022/08/24 11:59:08;;;;;;;9.77;8.73;;;;;;;;;;5015375;28;20076;-77
2022/08/24 12:01:38;;;;;;;9.82;8.77;;;;;;;;;;5032426;28;20088;-80
2022/08/24 12:04:16;;;;;;;8.23;7.35;;;;;;;;;;5017600;28;20450;-81
2022/08/24 12:06:54;;;;;;;9.05;8.25;;;;;;;;;;5017418;28;20049;-80
2022/08/24 12:09:26;;;;;;;9.98;8.05;;;;;;;;;;5028466;28;20049;-80
2022/08/24 12:12:06;;;;;;;9.50;8.32;;;;;;;;;;5033995;28;20048;-80
2022/08/24 12:14:50;;;;;;;9.35;8.45;;;;;;;;;;5012490;28;20060;-80
2022/08/24 12:17:36;;;;;;;11.80;8.30;;;;;;;;;;5033333;28;20049;-80
2022/08/24 12:20:17;;;;;;;9.63;8.63;;;;;;;;;;5010680;28;20456;-80
2022/08/24 12:22:44;;;;;;;8.93;8.00;;;;;;;;;;5018390;28;20115;-80
2022/08/24 12:26:00;;;;;;;10.50;9.15;;;;;;;;;;5033008;28;20176;-80
2022/08/24 12:27:57;;;;;;;9.18;8.30;;;;;;;;;;5016671;28;20497;-80
2022/08/24 12:30:24;;;;;;;10.05;8.18;;;;;;;;;;5013063;28;20101;-79
2022/08/24 12:32:56;;;;;;;9.90;8.88;;;;;;;;;;5032622;28;20432;-80
2022/08/24 12:35:41;;;;;;;9.55;7.57;;;;;;;;;;5016260;28;20053;-80
2022/08/24 12:38:10;;;;;;;9.52;8.55;;;;;;;;;;5016042;28;20053;-80
2022/08/24 12:40:42;;;;;;;10.10;9.05;;;;;;;;;;5034447;28;20088;-80
2022/08/24 12:43:12;;;;;;;10.07;9.18;;;;;;;;;;5034414;28;20049;-80
2022/08/24 12:45:38;;;;;;;9.27;8.00;;;;;;;;;;5013195;28;20045;-81
2022/08/24 12:48:15;;;;;;;9.05;7.88;;;;;;;;;;5013823;28;20041;-80
2022/08/24 12:50:56;;;;;;;8.98;8.07;;;;;;;;;;5034207;28;20194;-81
2022/08/24 12:53:25;;;;;;;10.98;7.95;;;;;;;;;;5013577;28;20122;-80
2022/08/24 12:56:05;;;;;;;8.82;7.97;;;;;;;;;;5013795;28;20442;-81
2022/08/24 12:58:50;;;;;;;8.05;7.20;;;;;;;;;;5011824;28;20088;-81
2022/08/24 13:01:17;;;;;;;11.63;10.52;;;;;;;;;;5005582;28;21310;-81
2022/08/24 13:03:45;;;;;;;9.43;7.85;;;;;;;;;;5010071;28;20389;-81
2022/08/24 13:06:28;;;;;;;10.48;8.85;;;;;;;;;;5028966;28;20372;-81
2022/08/24 13:08:54;;;;;;;;;;;;;;;;;;5027904;28;20045;-81
2022/08/24 13:11:23;;;;;;;8.88;7.22;;;;;;;;;;5002963;28;19921;-81
2022/08/24 13:14:08;;;;;;;8.93;8.07;;;;;;;;;;5012021;28;20053;-81
2022/08/24 13:16:53;;;;;;;8.38;7.32;;;;;;;;;;5011150;28;20396;-80
2022/08/24 13:19:22;;;;;;;7.20;6.50;;;;;;;;;;5008492;28;20420;-80
2022/08/24 13:22:08;;;;;;;8.52;7.65;;;;;;;;;;5011330;28;20044;-81
2022/08/24 13:24:34;;;;;;;9.30;8.32;;;;;;;;;;4983516;28;20050;-81
2022/08/24 13:27:13;;;;;;;7.03;6.35;;;;;;;;;;5010524;28;20129;-80
2022/08/24 13:29:39;;;;;;;8.02;7.15;;;;;;;;;;5025251;28;20394;-81
2022/08/24 13:32:05;;;;;;;7.45;6.75;;;;;;;;;;5007428;28;20053;-77
2022/08/24 13:34:37;;;;;;;7.78;6.97;;;;;;;;;;5026737;28;20053;-79
2022/08/24 13:37:10;;;;;;;7.07;6.47;;;;;;;;;;5027172;28;20094;-78
2022/08/24 13:39:39;;;;;;;8.80;8.00;;;;;;;;;;5015871;28;20071;-85
2022/08/24 13:42:20;;;;;;;9.93;8.93;;;;;;;;;;5033975;28;20048;-83
2022/08/24 13:44:49;;;;;;;8.70;7.40;;;;;;;;;;5011182;28;20056;-80
2022/08/24 13:47:22;;;;;;;6.78;6.00;;;;;;;;;;5000554;28;20060;-84
2022/08/24 13:50:00;;;;;;;7.78;6.57;;;;;;;;;;5003288;28;20045;-83
2022/08/24 13:52:55;;;;;;;8.02;6.68;;;;;;;;;;4999092;28;20065;-82
2022/08/24 13:55:28;;;;;;;7.90;6.55;;;;;;;;;;5005558;28;20046;-80
2022/08/24 13:57:57;;;;;;;7.05;6.25;;;;;;;;;;5007866;28;20045;-80
2022/08/24 14:00:29;;;;;;;7.28;6.50;;;;;;;;;;4999634;28;20513;-83
2022/08/24 14:02:55;;;;;;;6.43;5.88;;;;;;;;;;4986345;28;20132;-83
2022/08/24 14:05:29;;;;;;;6.32;5.72;;;;;;;;;;4989314;28;20133;-83
2022/08/24 14:08:19;;;;;;;6.32;5.20;;;;;;;;;;4975961;28;20486;-85
2022/08/24 14:10:57;;;;;;;4.80;4.40;;;;;;;;;;4969298;28;20089;-85
2022/08/24 14:13:41;;;;;;;3.92;3.50;;;;;;;;;;4994133;28;20482;-84
2022/08/24 14:19:11;;;;;;;4.57;4.18;;;;;;;;;;4979821;28;20054;-84
2022/08/24 14:21:41;;;;;;;4.15;3.75;;;;;;;;;;4994192;28;20478;-85
2022/08/24 14:24:10;;;;;;;3.83;3.53;;;;;;;;;;5010296;28;20125;-85
2022/08/24 14:26:39;;;;;;;3.50;3.20;;;;;;;;;;4992427;28;20398;-88
2022/08/24 14:29:14;;;;;;;4.05;3.03;;;;;;;;;;4990273;28;20070;-75
2022/08/24 14:31:41;;;;;;;4.60;3.58;;;;;;;;;;4989552;28;20050;-82
2022/08/24 14:34:16;;;;;;;2.53;2.30;;;;;;;;;;5001777;28;20042;-86
2022/08/24 14:36:47;;;;;;;3.53;2.55;;;;;;;;;;4978082;28;20457;-86
2022/08/24 14:39:25;;;;;;;3.03;2.30;;;;;;;;;;4993732;28;20042;-85
2022/08/24 14:41:51;;;;;;;3.13;2.15;;;;;;;;;;4990568;28;20803;-84
2022/08/24 14:44:42;;;;;;;3.55;2.40;;;;;;;;;;4994156;28;20050;-88
2022/08/24 14:47:27;;;;;;;2.47;2.28;;;;;;;;;;4998641;28;20050;-90
2022/08/24 14:50:13;;;;;;;2.90;2.25;;;;;;;;;;4988392;28;20096;-86
2022/08/24 14:52:50;;;;;;;4.10;2.97;;;;;;;;;;5002045;28;20030;-85
2022/08/24 14:55:20;;;;;;;3.78;3.17;;;;;;;;;;4984864;28;20115;-86
2022/08/24 14:58:04;;;;;;;2.95;2.75;;;;;;;;;;5011578;28;20053;-85
2022/08/24 15:00:49;;;;;;;2.88;2.67;;;;;;;;;;5016409;28;20452;-89
2022/08/24 15:03:25;;;;;;;5.80;3.55;;;;;;;;;;5026796;28;20497;-85
2022/08/24 15:06:05;;;;;;;2.80;2.60;;;;;;;;;;5030269;28;20041;-87